createdAt,value
2023-04-16T00:02:05.683Z,9.43
2023-04-16T00:04:32.922Z,9.57
2023-04-16T00:07:00.163Z,10.17
2023-04-16T00:09:27.246Z,10.50
2023-04-16T00:11:54.389Z,10.27
2023-04-16T00:14:21.501Z,10.20
2023-04-16T00:16:48.687Z,11.10
2023-04-16T00:19:15.940Z,10.53
2023-04-16T00:21:43.038Z,12.37
2023-04-16T00:24:10.620Z,11.43
2023-04-16T00:26:37.713Z,12.03
2023-04-16T00:29:04.868Z,11.57
2023-04-16T00:31:32.730Z,12.17
2023-04-16T00:34:00.750Z,11.73
2023-04-16T00:36:28.492Z,10.73
2023-04-16T00:38:56.204Z,11.17
2023-04-16T00:41:23.663Z,12.37
2023-04-16T00:43:51.539Z,11.80
2023-04-16T00:46:20.209Z,12.37
2023-04-16T00:48:47.474Z,12.47
2023-04-16T00:51:14.698Z,12.27
2023-04-16T00:53:41.875Z,12.40
2023-04-16T00:56:09.481Z,11.90
2023-04-16T00:58:36.683Z,11.80
2023-04-16T01:01:03.897Z,12.80
2023-04-16T01:03:41.859Z,11.50
2023-04-16T01:06:09.255Z,12.43
2023-04-16T01:08:36.474Z,12.60
2023-04-16T01:11:03.701Z,11.77
2023-04-16T01:13:31.307Z,11.47
2023-04-16T01:15:58.513Z,11.40
2023-04-16T01:18:26.717Z,12.30
2023-04-16T01:20:53.857Z,12.57
2023-04-16T01:23:21.424Z,13.20
2023-04-16T01:25:48.675Z,11.67
2023-04-16T01:28:15.892Z,11.40
2023-04-16T01:30:43.025Z,12.47
2023-04-16T01:33:11.651Z,13.03
2023-04-16T01:35:39.040Z,12.17
2023-04-16T01:38:06.468Z,11.73
2023-04-16T01:40:33.569Z,12.60
2023-04-16T01:43:00.677Z,12.97
2023-04-16T01:45:27.766Z,13.50
2023-04-16T01:47:55.246Z,14.37
2023-04-16T01:50:22.731Z,14.50
2023-04-16T01:52:49.919Z,14.87
2023-04-16T01:55:17.026Z,15.67
2023-04-16T01:57:44.163Z,15.80
2023-04-16T02:00:11.401Z,15.60
2023-04-16T02:02:38.683Z,16.43
2023-04-16T02:05:06.176Z,16.60
2023-04-16T02:07:33.360Z,17.07
2023-04-16T02:10:00.520Z,17.97
2023-04-16T02:12:27.746Z,17.93
2023-04-16T02:14:54.880Z,17.63
2023-04-16T02:17:22.101Z,18.23
2023-04-16T02:19:49.225Z,18.00
2023-04-16T02:22:16.392Z,19.13
2023-04-16T02:24:43.541Z,18.83
2023-04-16T02:27:11.142Z,20.23
2023-04-16T02:29:38.303Z,20.80
2023-04-16T02:32:05.760Z,21.67
2023-04-16T02:34:34.574Z,21.50
2023-04-16T02:37:01.719Z,22.83
2023-04-16T02:39:28.843Z,23.10
2023-04-16T02:41:56.226Z,23.53
2023-04-16T02:44:23.407Z,23.10
2023-04-16T02:46:50.606Z,24.93
2023-04-16T02:49:17.757Z,24.37
2023-04-16T02:51:44.893Z,24.70
2023-04-16T02:54:12.073Z,25.20
2023-04-16T02:56:39.171Z,26.00
2023-04-16T02:59:06.334Z,26.63
2023-04-16T03:01:33.476Z,27.17
2023-04-16T03:04:00.738Z,26.37
2023-04-16T03:06:27.877Z,27.90
2023-04-16T03:08:55.054Z,26.90
2023-04-16T03:11:22.163Z,26.40
2023-04-16T03:13:49.274Z,27.10
2023-04-16T03:16:16.489Z,27.60
2023-04-16T03:18:43.723Z,29.03
2023-04-16T03:21:11.123Z,29.00
2023-04-16T03:23:38.280Z,27.33
2023-04-16T03:26:06.477Z,27.70
2023-04-16T03:28:33.597Z,28.93
2023-04-16T03:31:01.264Z,27.73
2023-04-16T03:33:28.510Z,26.77
2023-04-16T03:35:58.775Z,27.97
2023-04-16T03:38:26.746Z,28.10
2023-04-16T03:40:53.955Z,27.53
2023-04-16T03:43:21.028Z,27.83
2023-04-16T03:45:48.344Z,29.30
2023-04-16T03:48:15.941Z,29.47
2023-04-16T03:50:47.171Z,29.33
2023-04-16T03:53:14.394Z,28.67
2023-04-16T03:55:42.004Z,29.80
2023-04-16T03:58:09.292Z,28.43
2023-04-16T04:00:36.407Z,28.70
2023-04-16T04:03:03.854Z,29.30
2023-04-16T04:05:31.328Z,30.27
2023-04-16T04:07:58.470Z,30.03
2023-04-16T04:10:25.655Z,29.83
2023-04-16T04:12:52.817Z,31.47
2023-04-16T04:15:20.002Z,29.93
2023-04-16T04:17:47.170Z,30.77
2023-04-16T04:20:14.302Z,29.40
2023-04-16T04:22:41.613Z,29.77
2023-04-16T04:25:09.429Z,29.63
2023-04-16T04:27:36.608Z,30.17
2023-04-16T04:30:06.943Z,29.33
2023-04-16T04:32:34.113Z,28.80
2023-04-16T04:35:02.574Z,29.93
2023-04-16T04:37:30.137Z,29.90
2023-04-16T04:39:57.309Z,29.70
2023-04-16T04:42:25.035Z,30.30
2023-04-16T04:44:52.160Z,29.40
2023-04-16T04:47:19.334Z,27.77
2023-04-16T04:49:46.468Z,30.13
2023-04-16T04:52:13.633Z,31.23
2023-04-16T04:54:41.817Z,30.53
2023-04-16T04:57:09.372Z,29.77
2023-04-16T04:59:36.761Z,29.93
2023-04-16T05:02:03.953Z,31.33
2023-04-16T05:04:31.571Z,30.50
2023-04-16T05:06:58.808Z,29.73
2023-04-16T05:09:26.373Z,32.33
2023-04-16T05:11:53.622Z,30.63
2023-04-16T05:14:20.766Z,32.10
2023-04-16T05:16:47.887Z,30.70
2023-04-16T05:19:15.085Z,30.03
2023-04-16T05:21:42.173Z,31.47
2023-04-16T05:27:01.666Z,33.17
2023-04-16T05:29:28.793Z,33.00
2023-04-16T05:31:55.961Z,33.07
2023-04-16T05:34:23.072Z,32.10
2023-04-16T05:36:50.351Z,32.50
2023-04-16T05:39:18.642Z,33.37
2023-04-16T05:41:45.935Z,30.77
2023-04-16T05:44:13.069Z,33.23
2023-04-16T05:46:40.224Z,30.60
2023-04-16T05:49:07.613Z,31.60
2023-04-16T05:51:34.996Z,31.37
2023-04-16T05:54:02.141Z,31.50
2023-04-16T05:56:29.261Z,30.73
2023-04-16T05:58:56.372Z,30.30
2023-04-16T06:01:23.533Z,29.93
2023-04-16T06:03:50.826Z,29.97
2023-04-16T06:06:18.034Z,29.23
2023-04-16T06:08:45.352Z,28.07
2023-04-16T06:11:12.477Z,28.63
2023-04-16T06:13:39.848Z,27.80
2023-04-16T06:16:07.308Z,26.93
2023-04-16T06:18:34.540Z,27.10
2023-04-16T06:21:01.962Z,27.77
2023-04-16T06:23:29.141Z,25.67
2023-04-16T06:25:56.313Z,24.97
2023-04-16T06:28:23.514Z,27.07
2023-04-16T06:30:50.805Z,25.53
2023-04-16T06:33:17.936Z,25.63
2023-04-16T06:35:45.233Z,24.63
2023-04-16T06:38:12.364Z,25.67
2023-04-16T06:40:39.606Z,25.90
2023-04-16T06:43:06.990Z,23.87
2023-04-16T06:45:34.754Z,23.70
2023-04-16T06:48:03.382Z,24.47
2023-04-16T06:50:31.015Z,24.63
2023-04-16T06:52:58.109Z,23.47
2023-04-16T06:55:25.472Z,23.93
2023-04-16T06:57:52.561Z,23.97
2023-04-16T07:00:19.878Z,23.50
2023-04-16T07:02:47.088Z,23.83
2023-04-16T07:05:14.309Z,23.37
2023-04-16T07:07:41.430Z,22.07
2023-04-16T07:10:08.801Z,23.77
2023-04-16T07:12:35.948Z,22.37
2023-04-16T07:15:03.069Z,22.93
2023-04-16T07:17:30.241Z,23.03
2023-04-16T07:19:57.531Z,22.37
2023-04-16T07:22:24.693Z,19.97
2023-04-16T07:24:51.837Z,20.87
2023-04-16T07:27:18.976Z,19.60
2023-04-16T07:29:46.569Z,21.10
2023-04-16T07:32:15.393Z,22.03
2023-04-16T07:34:42.841Z,20.67
2023-04-16T07:37:10.013Z,19.70
2023-04-16T07:39:37.096Z,19.27
2023-04-16T07:42:04.270Z,17.97
2023-04-16T07:44:31.699Z,18.57
2023-04-16T07:46:58.901Z,17.30
2023-04-16T07:49:26.189Z,17.73
2023-04-16T07:51:53.325Z,17.37
2023-04-16T07:54:20.857Z,17.60
2023-04-16T07:56:48.004Z,15.97
2023-04-16T07:59:22.889Z,15.80
2023-04-16T08:01:51.332Z,16.03
2023-04-16T08:04:24.416Z,15.17
2023-04-16T08:06:52.699Z,15.10
2023-04-16T08:09:21.623Z,14.63
2023-04-16T08:11:49.923Z,16.33
2023-04-16T08:14:17.755Z,15.93
2023-04-16T08:16:44.932Z,15.23
2023-04-16T08:19:12.390Z,15.60
2023-04-16T08:21:39.821Z,14.53
2023-04-16T08:24:07.113Z,15.00
2023-04-16T08:26:34.397Z,14.20
2023-04-16T08:29:01.612Z,14.30
2023-04-16T08:31:28.772Z,13.53
2023-04-16T08:33:55.889Z,13.47
2023-04-16T08:36:23.015Z,12.97
2023-04-16T08:38:52.189Z,12.50
2023-04-16T08:41:20.078Z,12.83
2023-04-16T08:43:49.365Z,13.20
2023-04-16T08:48:46.861Z,12.73
2023-04-16T08:51:15.143Z,12.20
2023-04-16T08:53:59.057Z,12.60
2023-04-16T08:56:26.546Z,12.63
2023-04-16T08:58:54.863Z,12.03
2023-04-16T09:01:22.139Z,11.00
2023-04-16T09:03:49.863Z,11.03
2023-04-16T09:06:17.446Z,11.50
2023-04-16T09:08:46.245Z,10.13
2023-04-16T09:11:18.631Z,10.37
2023-04-16T09:13:46.847Z,10.50
2023-04-16T09:16:14.523Z,9.30
2023-04-16T09:18:41.988Z,9.37
2023-04-16T09:21:11.046Z,8.60
2023-04-16T09:23:39.181Z,9.07
2023-04-16T09:26:06.575Z,9.30
2023-04-16T09:28:43.740Z,9.13
2023-04-16T09:31:12.268Z,8.70
2023-04-16T09:33:39.437Z,8.93
2023-04-16T09:36:07.595Z,8.70
2023-04-16T09:38:50.613Z,8.20
2023-04-16T09:41:17.825Z,8.30
2023-04-16T09:43:50.956Z,7.73
2023-04-16T09:46:18.576Z,7.73
2023-04-16T09:48:47.114Z,7.80
2023-04-16T09:51:14.294Z,7.90
2023-04-16T09:53:41.388Z,7.20
2023-04-16T09:56:09.348Z,10.43
2023-04-16T09:58:38.036Z,7.67
2023-04-16T10:01:08.380Z,6.73
2023-04-16T10:03:36.982Z,7.27
2023-04-16T10:06:07.370Z,7.00
2023-04-16T10:08:34.461Z,7.17
2023-04-16T10:11:01.655Z,8.57
2023-04-16T10:13:30.976Z,12.57
2023-04-16T10:15:58.858Z,10.37
2023-04-16T10:18:26.323Z,6.97
2023-04-16T10:20:53.621Z,6.40
2023-04-16T10:23:22.323Z,7.77
2023-04-16T10:25:52.921Z,5.53
2023-04-16T10:28:20.459Z,6.10
2023-04-16T10:30:52.906Z,6.50
2023-04-16T10:33:23.780Z,5.80
2023-04-16T10:36:01.311Z,5.00
2023-04-16T10:38:34.107Z,5.33
2023-04-16T10:41:03.298Z,5.43
2023-04-16T10:43:34.810Z,5.60
2023-04-16T10:46:18.359Z,5.73
2023-04-16T10:48:50.425Z,5.50
2023-04-16T10:51:44.438Z,5.80
2023-04-16T10:54:12.602Z,5.50
2023-04-16T10:56:39.720Z,5.43
2023-04-16T10:59:11.645Z,5.27
2023-04-16T11:01:42.336Z,5.13
2023-04-16T11:04:22.077Z,5.70
2023-04-16T11:07:07.869Z,4.90
2023-04-16T11:09:50.385Z,5.57
2023-04-16T11:12:18.909Z,5.67
2023-04-16T11:14:53.210Z,6.13
2023-04-16T11:17:20.831Z,7.30
2023-04-16T11:19:48.174Z,5.80
2023-04-16T11:22:17.212Z,4.83
2023-04-16T11:24:47.652Z,5.67
2023-04-16T11:27:16.154Z,5.37
2023-04-16T11:29:45.083Z,5.57
2023-04-16T11:32:22.402Z,5.27
2023-04-16T11:34:49.630Z,5.50
2023-04-16T11:37:19.763Z,5.60
2023-04-16T11:39:51.093Z,5.40
2023-04-16T11:42:22.804Z,5.20
2023-04-16T11:44:56.107Z,5.33
2023-04-16T11:47:24.251Z,5.00
2023-04-16T11:49:51.679Z,5.30
2023-04-16T11:52:27.606Z,4.80
2023-04-16T11:54:54.847Z,5.20
2023-04-16T11:57:29.166Z,5.20
2023-04-16T12:00:02.250Z,5.13
2023-04-16T12:02:47.342Z,4.67
2023-04-16T12:05:32.619Z,5.53
2023-04-16T12:08:00.518Z,4.70
2023-04-16T12:10:27.938Z,4.80
2023-04-16T12:12:55.061Z,5.17
2023-04-16T12:15:22.185Z,4.93
2023-04-16T12:17:50.556Z,4.60
2023-04-16T12:20:17.756Z,4.87
2023-04-16T12:22:49.374Z,4.50
2023-04-16T12:25:18.067Z,5.20
2023-04-16T12:27:51.345Z,5.10
2023-04-16T12:30:22.465Z,4.93
2023-04-16T12:32:50.877Z,4.40
2023-04-16T12:35:34.705Z,4.63
2023-04-16T12:38:03.514Z,4.43
2023-04-16T12:40:30.687Z,4.77
2023-04-16T12:42:58.013Z,5.20
2023-04-16T12:45:25.620Z,5.13
2023-04-16T12:47:52.912Z,5.23
2023-04-16T12:50:20.027Z,5.30
2023-04-16T12:52:47.179Z,5.17
2023-04-16T12:55:14.657Z,5.27
2023-04-16T12:57:42.662Z,5.20
2023-04-16T13:00:12.515Z,5.33
2023-04-16T13:02:40.300Z,5.47
2023-04-16T13:05:08.202Z,5.50
2023-04-16T13:07:35.774Z,5.50
2023-04-16T13:10:02.901Z,5.37
2023-04-16T13:12:30.005Z,5.37
2023-04-16T13:14:57.141Z,5.67
2023-04-16T13:17:24.312Z,5.33
2023-04-16T13:19:51.517Z,5.50
2023-04-16T13:22:18.677Z,5.20
2023-04-16T13:24:46.048Z,5.57
2023-04-16T13:27:16.064Z,5.73
2023-04-16T13:29:43.264Z,5.53
2023-04-16T13:32:10.502Z,6.10
2023-04-16T13:34:37.869Z,5.90
2023-04-16T13:37:04.987Z,6.20
2023-04-16T13:39:32.115Z,6.70
2023-04-16T13:41:59.268Z,6.17
2023-04-16T13:44:26.397Z,6.50
2023-04-16T13:46:53.646Z,7.83
2023-04-16T13:49:21.156Z,7.47
2023-04-16T13:51:48.388Z,6.43
2023-04-16T13:54:15.518Z,7.13
2023-04-16T13:56:42.685Z,6.37
2023-04-16T13:59:10.101Z,6.47
2023-04-16T14:01:37.329Z,6.20
2023-04-16T14:04:06.716Z,6.40
2023-04-16T14:06:34.898Z,6.67
2023-04-16T14:09:02.057Z,6.60
2023-04-16T14:11:29.200Z,6.73
2023-04-16T14:13:56.485Z,6.37
2023-04-16T14:16:23.717Z,7.27
2023-04-16T14:18:51.925Z,7.73
2023-04-16T14:21:19.184Z,8.03
2023-04-16T14:23:46.784Z,8.00
2023-04-16T14:26:14.328Z,8.07
2023-04-16T14:28:42.059Z,8.60
2023-04-16T14:31:09.285Z,9.03
2023-04-16T14:33:36.924Z,8.60
2023-04-16T14:36:04.199Z,9.10
2023-04-16T14:38:31.986Z,9.00
2023-04-16T14:41:00.420Z,8.90
2023-04-16T14:43:27.818Z,7.60
2023-04-16T14:45:55.163Z,7.60
2023-04-16T14:48:22.305Z,8.37
2023-04-16T14:50:49.499Z,8.23
2023-04-16T14:53:16.818Z,8.23
2023-04-16T14:55:44.117Z,8.40
2023-04-16T14:58:11.262Z,8.10
2023-04-16T15:00:38.384Z,8.90
2023-04-16T15:03:06.635Z,8.97
2023-04-16T15:05:33.876Z,9.33
2023-04-16T15:08:01.051Z,8.33
2023-04-16T15:10:28.430Z,8.47
2023-04-16T15:12:55.631Z,7.90
2023-04-16T15:15:22.756Z,8.07
2023-04-16T15:17:51.085Z,8.33
2023-04-16T15:20:18.617Z,8.53
2023-04-16T15:22:45.785Z,8.50
2023-04-16T15:25:13.155Z,9.93
2023-04-16T15:27:40.357Z,9.27
2023-04-16T15:30:08.093Z,10.03
2023-04-16T15:32:35.253Z,9.70
2023-04-16T15:35:04.820Z,9.93
2023-04-16T15:37:32.201Z,9.70
2023-04-16T15:39:59.336Z,10.63
2023-04-16T15:42:26.443Z,9.20
2023-04-16T15:44:53.555Z,9.00
2023-04-16T15:47:20.890Z,8.23
2023-04-16T15:49:48.015Z,8.40
2023-04-16T15:52:15.457Z,9.00
2023-04-16T15:54:43.023Z,7.83
2023-04-16T15:57:10.553Z,7.80
2023-04-16T15:59:37.657Z,7.87
2023-04-16T16:02:04.854Z,8.50
2023-04-16T16:04:32.192Z,8.27
2023-04-16T16:06:59.421Z,9.53
2023-04-16T16:09:26.840Z,7.90
2023-04-16T16:11:54.701Z,8.57
2023-04-16T16:14:22.391Z,8.83
2023-04-16T16:16:49.614Z,8.53
2023-04-16T16:19:16.878Z,9.77
2023-04-16T16:21:43.988Z,8.53
2023-04-16T16:24:11.112Z,7.80
2023-04-16T16:26:38.209Z,9.27
2023-04-16T16:29:06.004Z,7.73
2023-04-16T16:31:33.214Z,8.40
2023-04-16T16:34:00.994Z,7.67
2023-04-16T16:36:29.659Z,9.63
2023-04-16T16:38:57.289Z,14.47
2023-04-16T16:41:24.409Z,15.60
2023-04-16T16:43:55.784Z,12.40
2023-04-16T16:46:23.405Z,10.40
2023-04-16T16:48:50.745Z,11.83
2023-04-16T16:51:18.937Z,8.93
2023-04-16T16:53:46.914Z,7.00
2023-04-16T16:56:14.005Z,8.23
2023-04-16T16:58:41.758Z,7.80
2023-04-16T17:01:09.016Z,7.10
2023-04-16T17:03:36.434Z,7.20
2023-04-16T17:06:03.677Z,7.03
2023-04-16T17:08:30.777Z,6.80
2023-04-16T17:10:58.055Z,6.40
2023-04-16T17:13:25.711Z,6.10
2023-04-16T17:15:52.855Z,6.07
2023-04-16T17:18:19.991Z,6.17
2023-04-16T17:20:47.147Z,5.77
2023-04-16T17:23:14.281Z,6.07
2023-04-16T17:25:41.816Z,5.70
2023-04-16T17:28:08.977Z,5.97
2023-04-16T17:30:36.084Z,5.83
2023-04-16T17:33:04.646Z,6.40
2023-04-16T17:35:32.003Z,6.13
2023-04-16T17:37:59.120Z,6.33
2023-04-16T17:40:26.263Z,7.27
2023-04-16T17:42:53.427Z,7.53
2023-04-16T17:45:20.626Z,8.37
2023-04-16T17:47:47.833Z,6.50
2023-04-16T17:50:15.025Z,6.90
2023-04-16T17:52:42.226Z,8.50
2023-04-16T17:55:09.567Z,7.53
2023-04-16T17:57:37.211Z,7.80
2023-04-16T18:00:11.245Z,15.93
2023-04-16T18:02:41.978Z,11.63
2023-04-16T18:05:09.657Z,9.23
2023-04-16T18:07:37.565Z,8.37
2023-04-16T18:10:04.850Z,9.20
2023-04-16T18:12:31.973Z,8.87
2023-04-16T18:14:59.226Z,9.70
2023-04-16T18:17:26.427Z,8.93
2023-04-16T18:19:53.663Z,11.73
2023-04-16T18:22:20.772Z,9.77
2023-04-16T18:24:47.986Z,9.43
2023-04-16T18:27:15.151Z,10.10
2023-04-16T18:29:44.777Z,10.73
2023-04-16T18:32:12.629Z,10.00
2023-04-16T18:34:40.254Z,10.73
2023-04-16T18:37:07.864Z,10.70
2023-04-16T18:39:35.766Z,10.47
2023-04-16T18:42:03.880Z,11.03
2023-04-16T18:44:31.223Z,10.97
2023-04-16T18:46:58.415Z,11.03
2023-04-16T18:49:25.903Z,11.43
2023-04-16T18:51:55.832Z,10.97
2023-04-16T18:54:23.373Z,11.10
2023-04-16T18:56:50.788Z,11.63
2023-04-16T18:59:17.891Z,11.37
2023-04-16T19:01:45.049Z,11.17
2023-04-16T19:04:12.256Z,10.83
2023-04-16T19:06:40.057Z,11.57
2023-04-16T19:09:09.483Z,11.93
2023-04-16T19:11:38.054Z,11.53
2023-04-16T19:14:05.864Z,12.40
2023-04-16T19:16:33.130Z,12.47
2023-04-16T19:19:00.351Z,12.70
2023-04-16T19:21:27.627Z,12.93
2023-04-16T19:23:54.743Z,11.97
2023-04-16T19:26:21.905Z,12.33
2023-04-16T19:28:49.120Z,13.13
2023-04-16T19:31:16.350Z,14.17
2023-04-16T19:33:43.521Z,13.30
2023-04-16T19:36:10.864Z,13.23
2023-04-16T19:38:38.047Z,13.23
2023-04-16T19:41:05.161Z,13.47
2023-04-16T19:43:32.304Z,13.07
2023-04-16T19:45:59.549Z,13.23
2023-04-16T19:48:26.942Z,13.50
2023-04-16T19:50:54.111Z,14.13
2023-04-16T19:53:21.805Z,13.90
2023-04-16T19:55:48.934Z,13.87
2023-04-16T19:58:16.122Z,14.47
2023-04-16T20:00:43.684Z,14.37
2023-04-16T20:03:11.132Z,13.93
2023-04-16T20:05:38.485Z,14.57
2023-04-16T20:08:05.872Z,14.53
2023-04-16T20:10:33.155Z,14.63
2023-04-16T20:13:00.407Z,15.07
2023-04-16T20:15:27.716Z,14.47
2023-04-16T20:17:56.239Z,14.83
2023-04-16T20:20:23.654Z,14.63
2023-04-16T20:22:50.835Z,15.47
2023-04-16T20:25:21.533Z,14.57
2023-04-16T20:27:48.631Z,15.20
2023-04-16T20:30:16.358Z,14.87
2023-04-16T20:32:43.568Z,15.13
2023-04-16T20:35:11.423Z,15.27
2023-04-16T20:37:38.853Z,15.20
2023-04-16T20:40:09.520Z,14.20
2023-04-16T20:42:36.832Z,14.80
2023-04-16T20:45:04.906Z,14.67
2023-04-16T20:47:34.722Z,15.20
2023-04-16T20:50:02.683Z,14.90
2023-04-16T20:52:29.822Z,14.47
2023-04-16T20:54:57.853Z,14.20
2023-04-16T20:57:25.772Z,14.97
2023-04-16T20:59:52.920Z,15.37
2023-04-16T21:02:20.675Z,15.80
2023-04-16T21:04:48.065Z,16.10
2023-04-16T21:07:15.446Z,15.90
2023-04-16T21:09:42.544Z,16.47
2023-04-16T21:12:09.676Z,16.30
2023-04-16T21:14:36.793Z,16.03
2023-04-16T21:17:03.853Z,15.77
2023-04-16T21:19:31.234Z,16.03
2023-04-16T21:21:58.317Z,16.43
2023-04-16T21:24:25.498Z,16.93
2023-04-16T21:26:52.617Z,17.47
2023-04-16T21:29:19.714Z,16.73
2023-04-16T21:31:46.906Z,16.33
2023-04-16T21:34:14.140Z,17.90
2023-04-16T21:36:41.279Z,16.63
2023-04-16T21:39:08.498Z,16.73
2023-04-16T21:41:35.784Z,16.57
2023-04-16T21:44:02.912Z,17.07
2023-04-16T21:46:30.065Z,16.10
2023-04-16T21:48:57.198Z,15.90
2023-04-16T21:51:29.292Z,16.03
2023-04-16T21:53:57.257Z,18.03
2023-04-16T21:56:24.740Z,16.00
2023-04-16T21:58:51.835Z,16.80
2023-04-16T22:01:19.031Z,16.03
2023-04-16T22:03:50.567Z,17.30
2023-04-16T22:06:18.283Z,17.43
2023-04-16T22:08:45.383Z,16.77
2023-04-16T22:11:12.577Z,17.07
2023-04-16T22:13:41.973Z,16.37
2023-04-16T22:16:11.533Z,17.00
2023-04-16T22:18:41.107Z,15.87
2023-04-16T22:21:08.295Z,15.53
2023-04-16T22:23:35.519Z,15.97
2023-04-16T22:26:02.999Z,16.00
2023-04-16T22:28:30.207Z,16.37
2023-04-16T22:30:57.423Z,15.77
2023-04-16T22:33:24.545Z,15.00
2023-04-16T22:35:51.680Z,15.50
2023-04-16T22:38:18.845Z,15.67
2023-04-16T22:40:48.497Z,15.80
2023-04-16T22:43:17.583Z,15.87
2023-04-16T22:45:46.322Z,15.30
2023-04-16T22:48:13.663Z,14.83
2023-04-16T22:50:41.324Z,16.43
2023-04-16T22:53:08.431Z,15.83
2023-04-16T22:55:35.548Z,15.97
2023-04-16T22:58:02.711Z,16.63
2023-04-16T23:00:29.841Z,15.73
2023-04-16T23:02:57.044Z,16.03
2023-04-16T23:05:24.205Z,16.70
2023-04-16T23:07:51.298Z,16.17
2023-04-16T23:10:18.409Z,15.83
2023-04-16T23:12:45.515Z,16.67
2023-04-16T23:15:12.701Z,18.50
2023-04-16T23:17:39.893Z,17.80
2023-04-16T23:20:10.045Z,18.07
2023-04-16T23:22:37.200Z,16.97
2023-04-16T23:25:04.412Z,17.73
2023-04-16T23:27:32.623Z,17.50
2023-04-16T23:29:59.735Z,16.10
2023-04-16T23:32:27.165Z,16.60
2023-04-16T23:34:54.365Z,16.13
2023-04-16T23:37:21.485Z,16.50
2023-04-16T23:39:48.547Z,16.30
2023-04-16T23:42:15.633Z,17.10
2023-04-16T23:44:42.755Z,16.70
2023-04-16T23:47:09.894Z,16.07
2023-04-16T23:49:37.392Z,15.73
2023-04-16T23:52:04.589Z,15.13
2023-04-16T23:54:31.757Z,15.77
2023-04-16T23:56:58.825Z,16.17
2023-04-16T23:59:25.966Z,15.70
